Huvudsida
METAR-TAF:

METAR-TAF

Flygplatser :

Ankara Esenboğa, Turkiet

latitud: 40-07N, longitud: 032-59E, höjd: 953 m

Aktuellt väderrapport

Denna rapport gjordes för 44 minuter sedan, klockan 06:50 UTC
Vind 3 kt varierande vindriktning
Temperatur 23°C
Fuktighet 33%
Tryck 1015 hPa
Sikt 10 km eller mer
Inga moln under 1 500 m eller inga cumulonimbus

METAR: LTAC 150650Z VRB03KT CAVOK 23/06 Q1015 NOSIG

Tid: 10:34 (07:34 UTC)

Väderprognos

Denna rapport gjordes för 2 timmar och 54 minuter sedan, klockan 04:40 UTC
Prognos gäller från 15 kl. 06 UTC till 16 kl. 06 UTC
Vind 2 kt varierande vindriktning
Sikt 10 km eller mer
Inga moln under 1 500 m eller inga cumulonimbus
Blir
från 15 kl. 07 UTC till 15 kl. 09 UTC
Spridda moln på en höjd av 4000 ft
Blir
från 15 kl. 13 UTC till 15 kl. 15 UTC
Sikt 10 km eller mer
Inga moln under 1 500 m eller inga cumulonimbus

TAF: LTAC 150440Z 1506/1606 VRB02KT CAVOK BECMG 1507/1509 SCT040 BECMG 1513/1515 CAVOK

Aktuella väderrapporter och prognoser från 4000 flygplatser (METAR- och TAF-rapporter).

De tillgängliga stationerna syns som gula och röda prickar på kartan.

För musen över prickarna för att se namnen på stationerna.

Klicka sedan för att få väderrapporter och prognoser.

För att ändra kartan: Klicka på de gröna knapparna med ett svart kors på för att zooma in; den gröna knappen med ett streck på för att zooma ut; eller på de gröna pilarna för angränsande kartor.


METAR-TAF: